sensor_id;sensor_type;location;lat;lon;timestamp;P1;durP1;ratioP1;P2;durP2;ratioP2
60908;SDS011;46780;48.128;-1.704;2023-09-30T00:01:08;16.02;;;3.88;;
60908;SDS011;46780;48.128;-1.704;2023-09-30T00:03:37;18.88;;;3.90;;
60908;SDS011;46780;48.128;-1.704;2023-09-30T00:06:04;22.40;;;4.28;;
60908;SDS011;46780;48.128;-1.704;2023-09-30T00:08:30;13.93;;;3.45;;
60908;SDS011;46780;48.128;-1.704;2023-09-30T00:10:58;17.80;;;3.83;;
60908;SDS011;46780;48.128;-1.704;2023-09-30T00:13:25;23.23;;;4.55;;
60908;SDS011;46780;48.128;-1.704;2023-09-30T00:15:51;19.17;;;4.53;;
60908;SDS011;46780;48.128;-1.704;2023-09-30T00:18:18;19.13;;;4.50;;
60908;SDS011;46780;48.128;-1.704;2023-09-30T00:20:44;21.42;;;4.47;;
60908;SDS011;46780;48.128;-1.704;2023-09-30T00:23:11;17.45;;;3.97;;
60908;SDS011;46780;48.128;-1.704;2023-09-30T00:25:37;16.38;;;4.22;;
60908;SDS011;46780;48.128;-1.704;2023-09-30T00:28:05;16.85;;;3.85;;
60908;SDS011;46780;48.128;-1.704;2023-09-30T00:30:32;21.95;;;3.97;;
60908;SDS011;46780;48.128;-1.704;2023-09-30T00:32:59;22.73;;;4.90;;
60908;SDS011;46780;48.128;-1.704;2023-09-30T00:35:25;20.65;;;4.65;;
60908;SDS011;46780;48.128;-1.704;2023-09-30T00:37:52;18.92;;;3.83;;
60908;SDS011;46780;48.128;-1.704;2023-09-30T00:40:18;16.35;;;3.97;;
60908;SDS011;46780;48.128;-1.704;2023-09-30T00:42:45;18.73;;;4.45;;
60908;SDS011;46780;48.128;-1.704;2023-09-30T00:45:13;16.63;;;3.95;;
60908;SDS011;46780;48.128;-1.704;2023-09-30T00:47:39;15.88;;;3.80;;
60908;SDS011;46780;48.128;-1.704;2023-09-30T00:50:07;15.27;;;3.88;;
60908;SDS011;46780;48.128;-1.704;2023-09-30T00:52:34;19.75;;;4.13;;
60908;SDS011;46780;48.128;-1.704;2023-09-30T00:55:02;18.52;;;3.60;;
60908;SDS011;46780;48.128;-1.704;2023-09-30T00:57:29;17.80;;;3.70;;
60908;SDS011;46780;48.128;-1.704;2023-09-30T00:59:56;18.00;;;4.07;;
60908;SDS011;46780;48.128;-1.704;2023-09-30T01:02:24;17.83;;;4.13;;
60908;SDS011;46780;48.128;-1.704;2023-09-30T01:04:51;19.05;;;3.83;;
60908;SDS011;46780;48.128;-1.704;2023-09-30T01:07:18;14.70;;;3.78;;
60908;SDS011;46780;48.128;-1.704;2023-09-30T01:09:45;18.00;;;3.63;;
60908;SDS011;46780;48.128;-1.704;2023-09-30T01:12:11;15.07;;;3.47;;
60908;SDS011;46780;48.128;-1.704;2023-09-30T01:14:38;14.93;;;3.72;;
60908;SDS011;46780;48.128;-1.704;2023-09-30T01:17:07;16.90;;;3.78;;
60908;SDS011;46780;48.128;-1.704;2023-09-30T01:19:35;14.95;;;3.30;;
60908;SDS011;46780;48.128;-1.704;2023-09-30T01:22:03;16.85;;;3.65;;
60908;SDS011;46780;48.128;-1.704;2023-09-30T01:24:30;21.05;;;3.72;;
60908;SDS011;46780;48.128;-1.704;2023-09-30T01:26:56;17.23;;;3.60;;
60908;SDS011;46780;48.128;-1.704;2023-09-30T01:29:23;18.08;;;3.58;;
60908;SDS011;46780;48.128;-1.704;2023-09-30T01:31:50;14.55;;;3.50;;
60908;SDS011;46780;48.128;-1.704;2023-09-30T01:34:16;16.58;;;3.75;;
60908;SDS011;46780;48.128;-1.704;2023-09-30T01:36:43;19.58;;;3.65;;
60908;SDS011;46780;48.128;-1.704;2023-09-30T01:39:11;17.63;;;3.75;;
60908;SDS011;46780;48.128;-1.704;2023-09-30T01:41:38;17.38;;;3.42;;
60908;SDS011;46780;48.128;-1.704;2023-09-30T01:44:05;17.92;;;3.95;;
60908;SDS011;46780;48.128;-1.704;2023-09-30T01:46:33;14.90;;;3.20;;
60908;SDS011;46780;48.128;-1.704;2023-09-30T01:48:59;19.40;;;3.72;;
60908;SDS011;46780;48.128;-1.704;2023-09-30T01:51:26;19.65;;;3.67;;
60908;SDS011;46780;48.128;-1.704;2023-09-30T01:53:52;16.73;;;3.40;;
60908;SDS011;46780;48.128;-1.704;2023-09-30T01:56:20;16.17;;;3.40;;
60908;SDS011;46780;48.128;-1.704;2023-09-30T01:58:47;18.55;;;3.55;;
60908;SDS011;46780;48.128;-1.704;2023-09-30T02:01:13;18.92;;;4.07;;
60908;SDS011;46780;48.128;-1.704;2023-09-30T02:03:40;18.75;;;3.85;;
60908;SDS011;46780;48.128;-1.704;2023-09-30T02:06:07;20.60;;;3.75;;
60908;SDS011;46780;48.128;-1.704;2023-09-30T02:08:34;14.02;;;3.30;;
60908;SDS011;46780;48.128;-1.704;2023-09-30T02:11:00;17.40;;;3.33;;
60908;SDS011;46780;48.128;-1.704;2023-09-30T02:13:29;19.25;;;3.58;;
60908;SDS011;46780;48.128;-1.704;2023-09-30T02:15:57;17.02;;;3.38;;
60908;SDS011;46780;48.128;-1.704;2023-09-30T02:18:24;13.63;;;2.92;;
60908;SDS011;46780;48.128;-1.704;2023-09-30T02:20:50;14.25;;;3.92;;
60908;SDS011;46780;48.128;-1.704;2023-09-30T02:23:17;15.68;;;3.50;;
60908;SDS011;46780;48.128;-1.704;2023-09-30T02:25:43;17.02;;;3.40;;
60908;SDS011;46780;48.128;-1.704;2023-09-30T02:28:10;14.85;;;3.47;;
60908;SDS011;46780;48.128;-1.704;2023-09-30T02:30:38;17.13;;;3.13;;
60908;SDS011;46780;48.128;-1.704;2023-09-30T02:33:04;19.98;;;3.60;;
60908;SDS011;46780;48.128;-1.704;2023-09-30T02:35:31;19.48;;;3.47;;
60908;SDS011;46780;48.128;-1.704;2023-09-30T02:37:57;16.83;;;3.38;;
60908;SDS011;46780;48.128;-1.704;2023-09-30T02:40:24;14.95;;;3.15;;
60908;SDS011;46780;48.128;-1.704;2023-09-30T02:42:51;18.48;;;3.63;;
60908;SDS011;46780;48.128;-1.704;2023-09-30T02:45:17;15.52;;;3.47;;
60908;SDS011;46780;48.128;-1.704;2023-09-30T02:47:45;18.13;;;3.50;;
60908;SDS011;46780;48.128;-1.704;2023-09-30T02:50:12;16.15;;;3.40;;
60908;SDS011;46780;48.128;-1.704;2023-09-30T02:52:38;19.70;;;3.50;;
60908;SDS011;46780;48.128;-1.704;2023-09-30T02:55:06;16.52;;;3.50;;
60908;SDS011;46780;48.128;-1.704;2023-09-30T02:57:33;14.95;;;3.53;;
60908;SDS011;46780;48.128;-1.704;2023-09-30T02:59:59;16.20;;;3.05;;
60908;SDS011;46780;48.128;-1.704;2023-09-30T03:02:26;14.35;;;3.58;;
60908;SDS011;46780;48.128;-1.704;2023-09-30T03:04:54;17.48;;;3.17;;
60908;SDS011;46780;48.128;-1.704;2023-09-30T03:07:20;17.05;;;3.60;;
60908;SDS011;46780;48.128;-1.704;2023-09-30T03:09:47;15.57;;;3.40;;
60908;SDS011;46780;48.128;-1.704;2023-09-30T03:12:14;19.17;;;3.63;;
60908;SDS011;46780;48.128;-1.704;2023-09-30T03:14:40;22.73;;;4.10;;
60908;SDS011;46780;48.128;-1.704;2023-09-30T03:17:07;17.88;;;3.67;;
60908;SDS011;46780;48.128;-1.704;2023-09-30T03:19:33;18.50;;;3.92;;
60908;SDS011;46780;48.128;-1.704;2023-09-30T03:22:01;21.40;;;3.80;;
60908;SDS011;46780;48.128;-1.704;2023-09-30T03:24:28;17.00;;;3.90;;
60908;SDS011;46780;48.128;-1.704;2023-09-30T03:26:54;17.38;;;3.60;;
60908;SDS011;46780;48.128;-1.704;2023-09-30T03:29:21;16.63;;;3.50;;
60908;SDS011;46780;48.128;-1.704;2023-09-30T03:31:47;15.20;;;3.67;;
60908;SDS011;46780;48.128;-1.704;2023-09-30T03:34:14;14.05;;;3.38;;
60908;SDS011;46780;48.128;-1.704;2023-09-30T03:36:40;14.93;;;3.58;;
60908;SDS011;46780;48.128;-1.704;2023-09-30T03:39:09;21.15;;;3.75;;
60908;SDS011;46780;48.128;-1.704;2023-09-30T03:41:37;15.77;;;3.50;;
60908;SDS011;46780;48.128;-1.704;2023-09-30T03:44:04;13.43;;;3.22;;
60908;SDS011;46780;48.128;-1.704;2023-09-30T03:46:30;13.82;;;3.45;;
60908;SDS011;46780;48.128;-1.704;2023-09-30T03:48:57;18.73;;;3.70;;
60908;SDS011;46780;48.128;-1.704;2023-09-30T03:51:26;13.68;;;3.28;;
60908;SDS011;46780;48.128;-1.704;2023-09-30T03:53:53;13.85;;;3.50;;
60908;SDS011;46780;48.128;-1.704;2023-09-30T03:56:21;15.77;;;3.40;;
60908;SDS011;46780;48.128;-1.704;2023-09-30T03:58:47;14.73;;;3.65;;
60908;SDS011;46780;48.128;-1.704;2023-09-30T04:01:14;16.45;;;3.22;;
60908;SDS011;46780;48.128;-1.704;2023-09-30T04:03:40;19.80;;;3.63;;
60908;SDS011;46780;48.128;-1.704;2023-09-30T04:06:07;15.88;;;3.65;;
60908;SDS011;46780;48.128;-1.704;2023-09-30T04:08:33;19.58;;;3.42;;
60908;SDS011;46780;48.128;-1.704;2023-09-30T04:11:00;13.57;;;3.15;;
60908;SDS011;46780;48.128;-1.704;2023-09-30T04:13:28;13.85;;;3.05;;
60908;SDS011;46780;48.128;-1.704;2023-09-30T04:15:55;14.57;;;3.40;;
60908;SDS011;46780;48.128;-1.704;2023-09-30T04:18:21;14.52;;;3.15;;
60908;SDS011;46780;48.128;-1.704;2023-09-30T04:20:48;16.65;;;3.70;;
60908;SDS011;46780;48.128;-1.704;2023-09-30T04:23:14;16.63;;;3.65;;
60908;SDS011;46780;48.128;-1.704;2023-09-30T04:25:41;19.30;;;3.65;;
60908;SDS011;46780;48.128;-1.704;2023-09-30T04:28:08;16.17;;;3.55;;
60908;SDS011;46780;48.128;-1.704;2023-09-30T04:30:36;13.93;;;3.42;;
60908;SDS011;46780;48.128;-1.704;2023-09-30T04:33:02;15.40;;;3.50;;
60908;SDS011;46780;48.128;-1.704;2023-09-30T04:35:29;11.95;;;2.83;;
60908;SDS011;46780;48.128;-1.704;2023-09-30T04:37:56;12.43;;;3.30;;
60908;SDS011;46780;48.128;-1.704;2023-09-30T04:40:22;17.08;;;3.53;;
60908;SDS011;46780;48.128;-1.704;2023-09-30T04:42:49;15.85;;;3.58;;
60908;SDS011;46780;48.128;-1.704;2023-09-30T04:45:16;18.27;;;3.22;;
60908;SDS011;46780;48.128;-1.704;2023-09-30T04:47:44;14.40;;;3.22;;
60908;SDS011;46780;48.128;-1.704;2023-09-30T04:50:10;14.95;;;3.05;;
60908;SDS011;46780;48.128;-1.704;2023-09-30T04:52:37;16.77;;;3.72;;
60908;SDS011;46780;48.128;-1.704;2023-09-30T04:55:04;11.20;;;2.92;;
60908;SDS011;46780;48.128;-1.704;2023-09-30T04:57:31;14.20;;;3.35;;
60908;SDS011;46780;48.128;-1.704;2023-09-30T04:59:58;15.38;;;3.85;;
60908;SDS011;46780;48.128;-1.704;2023-09-30T05:02:25;12.45;;;3.40;;
60908;SDS011;46780;48.128;-1.704;2023-09-30T05:04:53;15.52;;;3.28;;
60908;SDS011;46780;48.128;-1.704;2023-09-30T05:07:19;18.10;;;3.60;;
60908;SDS011;46780;48.128;-1.704;2023-09-30T05:09:46;15.90;;;3.40;;
60908;SDS011;46780;48.128;-1.704;2023-09-30T05:12:12;15.20;;;3.05;;
60908;SDS011;46780;48.128;-1.704;2023-09-30T05:14:39;13.70;;;3.35;;
60908;SDS011;46780;48.128;-1.704;2023-09-30T05:17:05;14.05;;;3.15;;
60908;SDS011;46780;48.128;-1.704;2023-09-30T05:19:32;18.50;;;3.30;;
60908;SDS011;46780;48.128;-1.704;2023-09-30T05:22:00;14.48;;;3.58;;
60908;SDS011;46780;48.128;-1.704;2023-09-30T05:24:27;13.88;;;3.15;;
60908;SDS011;46780;48.128;-1.704;2023-09-30T05:26:53;14.00;;;3.47;;
60908;SDS011;46780;48.128;-1.704;2023-09-30T05:29:20;14.00;;;3.28;;
60908;SDS011;46780;48.128;-1.704;2023-09-30T05:31:49;17.88;;;3.28;;
60908;SDS011;46780;48.128;-1.704;2023-09-30T05:34:15;11.93;;;2.95;;
60908;SDS011;46780;48.128;-1.704;2023-09-30T05:36:42;13.85;;;3.33;;
60908;SDS011;46780;48.128;-1.704;2023-09-30T05:39:09;13.45;;;2.92;;
60908;SDS011;46780;48.128;-1.704;2023-09-30T05:41:36;18.23;;;3.72;;
60908;SDS011;46780;48.128;-1.704;2023-09-30T05:44:03;15.88;;;3.60;;
60908;SDS011;46780;48.128;-1.704;2023-09-30T05:46:30;15.38;;;3.60;;
60908;SDS011;46780;48.128;-1.704;2023-09-30T05:48:56;13.75;;;3.00;;
60908;SDS011;46780;48.128;-1.704;2023-09-30T05:51:23;12.02;;;3.40;;
60908;SDS011;46780;48.128;-1.704;2023-09-30T05:53:49;11.75;;;3.10;;
60908;SDS011;46780;48.128;-1.704;2023-09-30T05:56:17;14.23;;;3.08;;
60908;SDS011;46780;48.128;-1.704;2023-09-30T05:58:43;14.77;;;3.42;;
60908;SDS011;46780;48.128;-1.704;2023-09-30T06:01:10;15.00;;;3.67;;
60908;SDS011;46780;48.128;-1.704;2023-09-30T06:03:37;15.15;;;3.42;;
60908;SDS011;46780;48.128;-1.704;2023-09-30T06:06:03;13.57;;;3.40;;
60908;SDS011;46780;48.128;-1.704;2023-09-30T06:08:36;18.90;;;3.67;;
60908;SDS011;46780;48.128;-1.704;2023-09-30T06:11:03;17.08;;;3.97;;
60908;SDS011;46780;48.128;-1.704;2023-09-30T06:13:31;23.02;;;4.00;;
60908;SDS011;46780;48.128;-1.704;2023-09-30T06:15:58;22.98;;;3.75;;
60908;SDS011;46780;48.128;-1.704;2023-09-30T06:18:24;19.23;;;4.55;;
60908;SDS011;46780;48.128;-1.704;2023-09-30T06:20:51;18.10;;;4.13;;
60908;SDS011;46780;48.128;-1.704;2023-09-30T06:23:17;16.38;;;4.13;;
60908;SDS011;46780;48.128;-1.704;2023-09-30T06:25:44;17.02;;;3.95;;
60908;SDS011;46780;48.128;-1.704;2023-09-30T06:28:10;20.60;;;4.32;;
60908;SDS011;46780;48.128;-1.704;2023-09-30T06:30:39;17.48;;;4.82;;
60908;SDS011;46780;48.128;-1.704;2023-09-30T06:33:06;14.73;;;3.60;;
60908;SDS011;46780;48.128;-1.704;2023-09-30T06:35:32;20.42;;;3.60;;
60908;SDS011;46780;48.128;-1.704;2023-09-30T06:37:59;14.70;;;4.00;;
60908;SDS011;46780;48.128;-1.704;2023-09-30T06:40:25;17.10;;;4.03;;
60908;SDS011;46780;48.128;-1.704;2023-09-30T06:42:51;15.55;;;3.83;;
60908;SDS011;46780;48.128;-1.704;2023-09-30T06:45:18;17.98;;;4.15;;
60908;SDS011;46780;48.128;-1.704;2023-09-30T06:47:46;17.15;;;4.20;;
60908;SDS011;46780;48.128;-1.704;2023-09-30T06:50:12;20.48;;;4.18;;
60908;SDS011;46780;48.128;-1.704;2023-09-30T06:52:39;17.20;;;4.18;;
60908;SDS011;46780;48.128;-1.704;2023-09-30T06:55:07;21.02;;;4.57;;
60908;SDS011;46780;48.128;-1.704;2023-09-30T06:57:34;16.65;;;4.03;;
60908;SDS011;46780;48.128;-1.704;2023-09-30T07:00:01;20.75;;;4.68;;
60908;SDS011;46780;48.128;-1.704;2023-09-30T07:02:30;15.65;;;3.92;;
60908;SDS011;46780;48.128;-1.704;2023-09-30T07:04:58;15.57;;;4.50;;
60908;SDS011;46780;48.128;-1.704;2023-09-30T07:07:25;20.75;;;4.07;;
60908;SDS011;46780;48.128;-1.704;2023-09-30T07:09:54;20.45;;;4.25;;
60908;SDS011;46780;48.128;-1.704;2023-09-30T07:12:21;17.35;;;4.00;;
60908;SDS011;46780;48.128;-1.704;2023-09-30T07:14:50;13.80;;;4.18;;
60908;SDS011;46780;48.128;-1.704;2023-09-30T07:17:16;17.80;;;4.35;;
60908;SDS011;46780;48.128;-1.704;2023-09-30T07:19:42;20.65;;;4.50;;
60908;SDS011;46780;48.128;-1.704;2023-09-30T07:22:10;19.73;;;4.22;;
60908;SDS011;46780;48.128;-1.704;2023-09-30T07:24:37;16.58;;;4.22;;
60908;SDS011;46780;48.128;-1.704;2023-09-30T07:27:03;17.17;;;4.53;;
60908;SDS011;46780;48.128;-1.704;2023-09-30T07:29:30;22.05;;;4.50;;
60908;SDS011;46780;48.128;-1.704;2023-09-30T07:31:56;18.52;;;4.60;;
60908;SDS011;46780;48.128;-1.704;2023-09-30T07:34:23;19.20;;;4.60;;
60908;SDS011;46780;48.128;-1.704;2023-09-30T07:36:49;15.93;;;4.38;;
60908;SDS011;46780;48.128;-1.704;2023-09-30T07:39:17;17.52;;;5.07;;
60908;SDS011;46780;48.128;-1.704;2023-09-30T07:41:44;19.88;;;4.45;;
60908;SDS011;46780;48.128;-1.704;2023-09-30T07:44:10;16.67;;;4.28;;
60908;SDS011;46780;48.128;-1.704;2023-09-30T07:46:38;19.55;;;4.65;;
60908;SDS011;46780;48.128;-1.704;2023-09-30T07:49:04;24.23;;;6.07;;
60908;SDS011;46780;48.128;-1.704;2023-09-30T07:51:31;17.45;;;4.30;;
60908;SDS011;46780;48.128;-1.704;2023-09-30T07:53:57;23.60;;;5.40;;
60908;SDS011;46780;48.128;-1.704;2023-09-30T07:56:25;19.33;;;4.63;;
60908;SDS011;46780;48.128;-1.704;2023-09-30T07:58:52;21.15;;;5.00;;
60908;SDS011;46780;48.128;-1.704;2023-09-30T08:01:18;20.35;;;5.07;;
60908;SDS011;46780;48.128;-1.704;2023-09-30T08:03:45;17.98;;;5.57;;
60908;SDS011;46780;48.128;-1.704;2023-09-30T08:06:12;21.08;;;5.22;;
60908;SDS011;46780;48.128;-1.704;2023-09-30T08:08:38;21.40;;;5.18;;
60908;SDS011;46780;48.128;-1.704;2023-09-30T08:11:05;23.23;;;5.75;;
60908;SDS011;46780;48.128;-1.704;2023-09-30T08:13:33;19.88;;;5.47;;
60908;SDS011;46780;48.128;-1.704;2023-09-30T08:16:00;22.95;;;5.53;;
60908;SDS011;46780;48.128;-1.704;2023-09-30T08:18:26;20.35;;;5.20;;
60908;SDS011;46780;48.128;-1.704;2023-09-30T08:20:53;23.40;;;5.50;;
60908;SDS011;46780;48.128;-1.704;2023-09-30T08:23:20;22.65;;;5.78;;
60908;SDS011;46780;48.128;-1.704;2023-09-30T08:25:46;22.58;;;5.75;;
60908;SDS011;46780;48.128;-1.704;2023-09-30T08:28:13;27.05;;;6.35;;
60908;SDS011;46780;48.128;-1.704;2023-09-30T08:30:41;25.77;;;6.15;;
60908;SDS011;46780;48.128;-1.704;2023-09-30T08:33:09;24.02;;;6.43;;
60908;SDS011;46780;48.128;-1.704;2023-09-30T08:35:36;30.90;;;7.07;;
60908;SDS011;46780;48.128;-1.704;2023-09-30T08:38:02;26.92;;;6.53;;
60908;SDS011;46780;48.128;-1.704;2023-09-30T08:40:29;23.63;;;6.53;;
60908;SDS011;46780;48.128;-1.704;2023-09-30T08:42:57;27.40;;;6.43;;
60908;SDS011;46780;48.128;-1.704;2023-09-30T08:45:24;28.17;;;6.30;;
60908;SDS011;46780;48.128;-1.704;2023-09-30T08:47:55;21.20;;;5.43;;
60908;SDS011;46780;48.128;-1.704;2023-09-30T08:50:22;25.00;;;5.82;;
60908;SDS011;46780;48.128;-1.704;2023-09-30T08:53:29;25.83;;;5.82;;
60908;SDS011;46780;48.128;-1.704;2023-09-30T08:56:01;23.13;;;5.93;;
60908;SDS011;46780;48.128;-1.704;2023-09-30T08:58:29;24.08;;;6.03;;
60908;SDS011;46780;48.128;-1.704;2023-09-30T09:01:10;26.80;;;6.25;;
60908;SDS011;46780;48.128;-1.704;2023-09-30T09:03:44;25.83;;;6.28;;
60908;SDS011;46780;48.128;-1.704;2023-09-30T09:06:10;26.98;;;6.55;;
60908;SDS011;46780;48.128;-1.704;2023-09-30T09:08:37;24.77;;;6.25;;
60908;SDS011;46780;48.128;-1.704;2023-09-30T09:11:03;25.20;;;6.22;;
60908;SDS011;46780;48.128;-1.704;2023-09-30T09:13:42;31.02;;;6.82;;
60908;SDS011;46780;48.128;-1.704;2023-09-30T09:16:14;22.65;;;5.90;;
60908;SDS011;46780;48.128;-1.704;2023-09-30T09:18:44;20.85;;;6.18;;
60908;SDS011;46780;48.128;-1.704;2023-09-30T09:21:13;29.00;;;6.47;;
60908;SDS011;46780;48.128;-1.704;2023-09-30T09:23:45;20.48;;;6.10;;
60908;SDS011;46780;48.128;-1.704;2023-09-30T09:26:23;29.50;;;6.63;;
60908;SDS011;46780;48.128;-1.704;2023-09-30T09:28:55;27.00;;;6.20;;
60908;SDS011;46780;48.128;-1.704;2023-09-30T09:31:23;29.38;;;7.30;;
60908;SDS011;46780;48.128;-1.704;2023-09-30T09:33:52;30.00;;;7.57;;
60908;SDS011;46780;48.128;-1.704;2023-09-30T09:36:18;28.92;;;7.43;;
60908;SDS011;46780;48.128;-1.704;2023-09-30T09:38:47;25.48;;;6.93;;
60908;SDS011;46780;48.128;-1.704;2023-09-30T09:41:14;29.52;;;7.32;;
60908;SDS011;46780;48.128;-1.704;2023-09-30T09:43:42;23.80;;;6.53;;
60908;SDS011;46780;48.128;-1.704;2023-09-30T09:46:13;28.95;;;7.07;;
60908;SDS011;46780;48.128;-1.704;2023-09-30T09:48:47;25.45;;;7.60;;
60908;SDS011;46780;48.128;-1.704;2023-09-30T09:51:15;28.67;;;7.50;;
60908;SDS011;46780;48.128;-1.704;2023-09-30T09:53:42;24.02;;;6.80;;
60908;SDS011;46780;48.128;-1.704;2023-09-30T09:56:09;32.55;;;8.10;;
60908;SDS011;46780;48.128;-1.704;2023-09-30T09:58:41;31.50;;;8.13;;
60908;SDS011;46780;48.128;-1.704;2023-09-30T10:01:11;32.08;;;8.20;;
60908;SDS011;46780;48.128;-1.704;2023-09-30T10:03:42;29.58;;;7.97;;
60908;SDS011;46780;48.128;-1.704;2023-09-30T10:06:09;30.50;;;7.68;;
60908;SDS011;46780;48.128;-1.704;2023-09-30T10:08:40;27.90;;;7.50;;
60908;SDS011;46780;48.128;-1.704;2023-09-30T10:11:16;26.90;;;7.40;;
60908;SDS011;46780;48.128;-1.704;2023-09-30T10:13:55;28.70;;;8.13;;
60908;SDS011;46780;48.128;-1.704;2023-09-30T10:19:20;28.30;;;7.78;;
60908;SDS011;46780;48.128;-1.704;2023-09-30T10:24:50;31.05;;;8.18;;
60908;SDS011;46780;48.128;-1.704;2023-09-30T10:27:30;31.65;;;8.75;;
60908;SDS011;46780;48.128;-1.704;2023-09-30T10:29:57;31.63;;;8.40;;
60908;SDS011;46780;48.128;-1.704;2023-09-30T10:35:42;34.33;;;8.85;;
60908;SDS011;46780;48.128;-1.704;2023-09-30T10:41:48;34.03;;;8.88;;
60908;SDS011;46780;48.128;-1.704;2023-09-30T10:44:32;35.33;;;8.80;;
60908;SDS011;46780;48.128;-1.704;2023-09-30T10:46:59;34.20;;;8.88;;
60908;SDS011;46780;48.128;-1.704;2023-09-30T10:49:29;31.75;;;8.95;;
60908;SDS011;46780;48.128;-1.704;2023-09-30T10:51:57;36.88;;;9.75;;
60908;SDS011;46780;48.128;-1.704;2023-09-30T10:54:24;33.75;;;8.80;;
60908;SDS011;46780;48.128;-1.704;2023-09-30T10:56:53;34.67;;;8.80;;
60908;SDS011;46780;48.128;-1.704;2023-09-30T10:59:20;32.35;;;9.77;;
60908;SDS011;46780;48.128;-1.704;2023-09-30T11:01:47;32.83;;;9.40;;
60908;SDS011;46780;48.128;-1.704;2023-09-30T11:04:18;34.95;;;9.40;;
60908;SDS011;46780;48.128;-1.704;2023-09-30T11:09:15;32.40;;;9.23;;
60908;SDS011;46780;48.128;-1.704;2023-09-30T11:11:43;34.90;;;9.05;;
60908;SDS011;46780;48.128;-1.704;2023-09-30T11:14:19;30.23;;;8.85;;
60908;SDS011;46780;48.128;-1.704;2023-09-30T11:16:46;31.23;;;8.77;;
60908;SDS011;46780;48.128;-1.704;2023-09-30T11:19:14;32.13;;;8.57;;
60908;SDS011;46780;48.128;-1.704;2023-09-30T11:21:41;33.90;;;9.23;;
60908;SDS011;46780;48.128;-1.704;2023-09-30T11:24:08;34.17;;;8.93;;
60908;SDS011;46780;48.128;-1.704;2023-09-30T11:27:43;32.78;;;9.00;;
60908;SDS011;46780;48.128;-1.704;2023-09-30T11:30:06;31.20;;;8.30;;
60908;SDS011;46780;48.128;-1.704;2023-09-30T11:32:36;34.72;;;9.45;;
60908;SDS011;46780;48.128;-1.704;2023-09-30T11:35:08;33.90;;;8.98;;
60908;SDS011;46780;48.128;-1.704;2023-09-30T11:37:35;32.45;;;9.70;;
60908;SDS011;46780;48.128;-1.704;2023-09-30T11:40:08;41.90;;;9.65;;
60908;SDS011;46780;48.128;-1.704;2023-09-30T11:42:37;34.78;;;9.55;;
60908;SDS011;46780;48.128;-1.704;2023-09-30T11:45:19;33.72;;;9.68;;
60908;SDS011;46780;48.128;-1.704;2023-09-30T11:47:47;31.30;;;9.45;;
60908;SDS011;46780;48.128;-1.704;2023-09-30T11:50:14;33.63;;;9.65;;
60908;SDS011;46780;48.128;-1.704;2023-09-30T11:52:43;34.83;;;10.35;;
60908;SDS011;46780;48.128;-1.704;2023-09-30T11:55:10;28.00;;;8.73;;
60908;SDS011;46780;48.128;-1.704;2023-09-30T11:57:36;35.63;;;9.38;;
60908;SDS011;46780;48.128;-1.704;2023-09-30T12:00:04;32.65;;;9.10;;
60908;SDS011;46780;48.128;-1.704;2023-09-30T12:02:35;35.78;;;9.95;;
60908;SDS011;46780;48.128;-1.704;2023-09-30T12:05:02;35.22;;;9.70;;
60908;SDS011;46780;48.128;-1.704;2023-09-30T12:07:28;36.70;;;10.05;;
60908;SDS011;46780;48.128;-1.704;2023-09-30T12:09:55;38.60;;;10.73;;
60908;SDS011;46780;48.128;-1.704;2023-09-30T12:12:21;37.30;;;10.90;;
60908;SDS011;46780;48.128;-1.704;2023-09-30T12:14:48;36.72;;;10.57;;
60908;SDS011;46780;48.128;-1.704;2023-09-30T12:17:14;33.47;;;9.55;;
60908;SDS011;46780;48.128;-1.704;2023-09-30T12:19:42;36.03;;;10.23;;
60908;SDS011;46780;48.128;-1.704;2023-09-30T12:22:09;36.53;;;9.98;;
60908;SDS011;46780;48.128;-1.704;2023-09-30T12:24:36;35.47;;;10.30;;
60908;SDS011;46780;48.128;-1.704;2023-09-30T12:27:03;37.47;;;10.35;;
60908;SDS011;46780;48.128;-1.704;2023-09-30T12:29:32;37.95;;;10.55;;
60908;SDS011;46780;48.128;-1.704;2023-09-30T12:31:58;32.88;;;9.48;;
60908;SDS011;46780;48.128;-1.704;2023-09-30T12:34:25;35.67;;;10.25;;
60908;SDS011;46780;48.128;-1.704;2023-09-30T12:36:53;36.20;;;9.90;;
60908;SDS011;46780;48.128;-1.704;2023-09-30T12:39:19;35.83;;;10.23;;
60908;SDS011;46780;48.128;-1.704;2023-09-30T12:41:46;34.78;;;10.52;;
60908;SDS011;46780;48.128;-1.704;2023-09-30T12:44:12;36.05;;;9.85;;
60908;SDS011;46780;48.128;-1.704;2023-09-30T12:46:39;36.00;;;10.30;;
60908;SDS011;46780;48.128;-1.704;2023-09-30T12:49:05;34.70;;;9.30;;
60908;SDS011;46780;48.128;-1.704;2023-09-30T12:51:33;36.83;;;10.50;;
60908;SDS011;46780;48.128;-1.704;2023-09-30T12:54:01;33.47;;;9.90;;
60908;SDS011;46780;48.128;-1.704;2023-09-30T12:56:28;34.67;;;9.68;;
60908;SDS011;46780;48.128;-1.704;2023-09-30T12:58:55;37.63;;;10.38;;
60908;SDS011;46780;48.128;-1.704;2023-09-30T13:01:21;36.92;;;10.10;;
60908;SDS011;46780;48.128;-1.704;2023-09-30T13:03:48;35.65;;;9.82;;
60908;SDS011;46780;48.128;-1.704;2023-09-30T13:06:15;34.55;;;10.27;;
60908;SDS011;46780;48.128;-1.704;2023-09-30T13:08:42;36.05;;;10.50;;
60908;SDS011;46780;48.128;-1.704;2023-09-30T13:11:10;38.15;;;10.45;;
60908;SDS011;46780;48.128;-1.704;2023-09-30T13:13:36;34.60;;;10.13;;
60908;SDS011;46780;48.128;-1.704;2023-09-30T13:16:03;32.38;;;9.98;;
60908;SDS011;46780;48.128;-1.704;2023-09-30T13:18:31;37.25;;;10.35;;
60908;SDS011;46780;48.128;-1.704;2023-09-30T13:20:58;38.17;;;10.90;;
60908;SDS011;46780;48.128;-1.704;2023-09-30T13:23:24;34.78;;;11.18;;
60908;SDS011;46780;48.128;-1.704;2023-09-30T13:25:51;33.22;;;11.00;;
60908;SDS011;46780;48.128;-1.704;2023-09-30T13:28:19;37.58;;;11.32;;
60908;SDS011;46780;48.128;-1.704;2023-09-30T13:30:45;38.00;;;11.32;;
60908;SDS011;46780;48.128;-1.704;2023-09-30T13:33:12;35.85;;;11.02;;
60908;SDS011;46780;48.128;-1.704;2023-09-30T13:35:38;36.00;;;10.73;;
60908;SDS011;46780;48.128;-1.704;2023-09-30T13:38:05;35.80;;;11.02;;
60908;SDS011;46780;48.128;-1.704;2023-09-30T13:40:32;35.55;;;10.80;;
60908;SDS011;46780;48.128;-1.704;2023-09-30T13:42:58;35.67;;;10.93;;
60908;SDS011;46780;48.128;-1.704;2023-09-30T13:45:26;37.38;;;11.52;;
60908;SDS011;46780;48.128;-1.704;2023-09-30T13:47:53;40.50;;;11.48;;
60908;SDS011;46780;48.128;-1.704;2023-09-30T13:50:22;40.00;;;11.77;;
60908;SDS011;46780;48.128;-1.704;2023-09-30T13:52:49;43.13;;;11.68;;
60908;SDS011;46780;48.128;-1.704;2023-09-30T13:55:33;36.50;;;11.68;;
60908;SDS011;46780;48.128;-1.704;2023-09-30T13:58:03;39.08;;;11.60;;
60908;SDS011;46780;48.128;-1.704;2023-09-30T14:00:32;40.72;;;11.68;;
60908;SDS011;46780;48.128;-1.704;2023-09-30T14:02:59;40.38;;;11.50;;
60908;SDS011;46780;48.128;-1.704;2023-09-30T14:05:25;37.13;;;11.30;;
60908;SDS011;46780;48.128;-1.704;2023-09-30T14:07:52;41.10;;;12.38;;
60908;SDS011;46780;48.128;-1.704;2023-09-30T14:10:19;39.60;;;11.95;;
60908;SDS011;46780;48.128;-1.704;2023-09-30T14:12:45;38.55;;;11.23;;
60908;SDS011;46780;48.128;-1.704;2023-09-30T14:15:12;36.70;;;11.05;;
60908;SDS011;46780;48.128;-1.704;2023-09-30T14:17:42;43.40;;;12.07;;
60908;SDS011;46780;48.128;-1.704;2023-09-30T14:20:09;37.95;;;11.32;;
60908;SDS011;46780;48.128;-1.704;2023-09-30T14:22:36;38.15;;;11.23;;
60908;SDS011;46780;48.128;-1.704;2023-09-30T14:25:04;36.88;;;11.35;;
60908;SDS011;46780;48.128;-1.704;2023-09-30T14:27:30;35.67;;;10.70;;
60908;SDS011;46780;48.128;-1.704;2023-09-30T14:29:57;40.10;;;11.50;;
60908;SDS011;46780;48.128;-1.704;2023-09-30T14:32:24;39.58;;;12.50;;
60908;SDS011;46780;48.128;-1.704;2023-09-30T14:34:51;37.10;;;11.15;;
60908;SDS011;46780;48.128;-1.704;2023-09-30T14:37:18;40.97;;;11.75;;